Terminal Aerodrome Forecast
Issued by NWS Atlanta, GA

Home | Current Version | Previous Version | Text Only | Print | Product List | Glossary On
Versions: 1 2 3 4 5 6 7 8 9 10 11 12 13 14 15 16 17 18 19 20 21 22 23 24 25 26 27 28 29 30 31 32
698
FTUS42 KFFC 080733 AAA
TAFAHN
TAF AMD
KAHN 080733Z 0808/0906 27005KT P6SM BKN250
     FM081200 24004KT P6SM SCT035 BKN100
     FM081500 25007KT P6SM BKN035
     FM081800 26012G21KT P6SM SCT035 BKN050
      TEMPO 0819/0823 6SM -SHRA BKN035
     FM090000 30010G19KT P6SM OVC025 PROB30 0900/0906 6SM -SHSN
      BKN015=

USA.gov is the U.S. government's official web portal to all federal, state and local government web resources and services.